Time;durP1;ratioP1;P1;durP2;ratioP2;P2;SDS_P1;SDS_P2;PMS_P1;PMS_P2;Temp;Humidity;BMP_temperature;BMP_pressure;BME280_temperature;BME280_humidity;BME280_pressure;Samples;Min_cycle;Max_cycle;Signal;HPM_P1;HPM_P2
2021/12/11 00:01:49;;;;;;;47.80;22.52;;;;;;;2.84;76.60;98814.69;4470788;32;33978;-72
2021/12/11 00:04:20;;;;;;;41.95;22.40;;;;;;;2.46;78.32;98819.16;4470321;32;34306;-73
2021/12/11 00:06:50;;;;;;;50.08;24.17;;;;;;;2.77;77.03;98819.31;4469448;32;34635;-73
2021/12/11 00:09:44;;;;;;;47.15;22.17;;;;;;;2.15;80.18;98819.19;4470503;32;33477;-73
2021/12/11 00:12:19;;;;;;;48.28;23.12;;;;;;;2.45;78.68;98835.44;4470534;32;33934;-72
2021/12/11 00:14:54;;;;;;;44.55;22.25;;;;;;;2.35;79.15;98845.81;4469264;32;35269;-74
2021/12/11 00:17:27;;;;;;;42.53;20.80;;;;;;;1.95;80.99;98848.78;4470475;32;33279;-72
2021/12/11 00:19:55;;;;;;;41.20;21.95;;;;;;;2.47;78.73;98841.41;4469112;32;33623;-72
2021/12/11 00:22:26;;;;;;;43.70;21.55;;;;;;;2.48;78.32;98848.38;4470220;32;33865;-72
2021/12/11 00:25:20;;;;;;;39.75;20.10;;;;;;;2.38;77.96;98848.88;4470290;32;34308;-71
2021/12/11 00:27:50;;;;;;;36.67;20.73;;;;;;;2.06;80.58;98864.13;4468581;32;34032;-72
2021/12/11 00:30:25;;;;;;;39.95;20.65;;;;;;;2.30;79.25;98864.38;4470356;32;34403;-72
2021/12/11 00:33:25;;;;;;;;;;;;;;;2.46;78.75;98859.31;4470562;32;34873;-72
2021/12/11 00:35:53;;;;;;;39.88;20.00;;;;;;;2.43;78.60;98870.44;4452131;32;35096;-83
2021/12/11 00:38:25;;;;;;;39.28;20.67;;;;;;;2.47;78.22;98887.72;4469723;32;35017;-72
2021/12/11 00:40:55;;;;;;;38.78;19.70;;;;;;;2.46;77.92;98886.09;4470261;32;34629;-72
2021/12/11 00:43:28;;;;;;;35.65;18.33;;;;;;;2.37;78.44;98887.38;4470157;32;34368;-72
2021/12/11 00:45:57;;;;;;;38.53;19.08;;;;;;;2.56;77.89;98890.94;4470245;32;34050;-71
2021/12/11 00:48:29;;;;;;;37.92;19.73;;;;;;;2.03;80.40;98894.81;4469077;32;33998;-73
2021/12/11 00:51:05;;;;;;;42.88;20.80;;;;;;;1.88;81.22;98904.13;4470318;32;33743;-75
2021/12/11 00:53:41;;;;;;;41.25;19.20;;;;;;;2.37;78.88;98902.63;4470165;32;34008;-82
2021/12/11 00:56:15;;;;;;;40.97;19.83;;;;;;;2.47;78.37;98919.84;4468734;32;34995;-82
2021/12/11 00:58:44;;;;;;;42.60;21.50;;;;;;;2.68;77.41;98923.22;4470200;32;34868;-78
2021/12/11 01:01:13;;;;;;;37.78;19.95;;;;;;;2.72;77.25;98924.44;4470207;32;33739;-72
2021/12/11 01:04:01;;;;;;;42.22;19.85;;;;;;;2.13;79.98;98921.09;4470132;32;33806;-78
2021/12/11 01:06:33;;;;;;;40.80;19.65;;;;;;;1.90;80.73;98920.78;4469859;32;35194;-72
2021/12/11 01:09:09;;;;;;;39.70;20.67;;;;;;;2.18;80.13;98925.78;4468889;32;34667;-72
2021/12/11 01:11:49;;;;;;;45.55;19.40;;;;;;;1.87;81.17;98923.91;4470226;32;34491;-77
2021/12/11 01:14:36;;;;;;;40.78;19.02;;;;;;;2.24;80.39;98924.94;4470116;32;34666;-85
2021/12/11 01:17:40;;;;;;;40.78;20.65;;;;;;;1.95;81.39;98915.66;4469801;32;35059;-83
2021/12/11 01:20:19;;;;;;;40.80;19.98;;;;;;;2.20;80.45;98926.41;4480809;32;33552;-72
2021/12/11 01:22:48;;;;;;;40.00;19.83;;;;;;;2.28;79.76;98934.19;4470206;32;33227;-72
2021/12/11 01:25:25;;;;;;;42.10;21.10;;;;;;;2.35;79.62;98937.62;4469922;32;34729;-71
2021/12/11 01:27:56;;;;;;;40.28;19.37;;;;;;;1.81;80.79;98928.25;4470386;32;34086;-88
2021/12/11 01:30:31;;;;;;;40.38;19.25;;;;;;;2.00;81.05;98929.19;4469957;32;34127;-73
2021/12/11 01:32:59;;;;;;;43.05;20.00;;;;;;;2.35;79.17;98931.47;4468650;32;33358;-79
2021/12/11 01:35:27;;;;;;;36.00;19.10;;;;;;;2.19;79.70;98935.47;4470009;32;33804;-85
2021/12/11 01:38:14;;;;;;;37.53;18.25;;;;;;;2.22;80.63;98935.84;4469975;32;35028;-73
2021/12/11 01:40:47;;;;;;;40.92;19.12;;;;;;;2.88;77.29;98942.63;4469806;32;33974;-89
2021/12/11 01:43:15;;;;;;;38.08;19.20;;;;;;;2.61;78.21;98941.19;4470075;32;33622;-73
2021/12/11 01:45:45;;;;;;;1.25;1.15;;;;;;;2.66;78.18;98941.37;4468762;32;34027;-81
2021/12/11 01:48:34;;;;;;;39.83;19.40;;;;;;;2.54;78.63;98953.81;4469978;32;35105;-75
2021/12/11 01:51:10;;;;;;;34.28;17.35;;;;;;;2.36;79.84;98955.34;4469552;32;33615;-74
2021/12/11 01:53:44;;;;;;;37.25;18.02;;;;;;;2.82;78.01;98956.87;4469976;32;33582;-77
2021/12/11 01:56:20;;;;;;;;;;;;;;;2.60;78.46;98961.78;4469977;32;33709;-73
2021/12/11 01:58:57;;;;;;;37.63;17.92;;;;;;;2.59;78.33;98959.31;4470092;32;34505;-72
2021/12/11 02:01:34;;;;;;;35.63;18.05;;;;;;;2.57;78.45;98948.84;4468413;32;34568;-83
2021/12/11 02:04:05;;;;;;;34.08;17.87;;;;;;;2.84;77.51;98944.09;4469929;32;33705;-85
2021/12/11 02:06:36;;;;;;;39.47;18.30;;;;;;;2.61;78.22;98942.03;4469649;32;34874;-81
2021/12/11 02:09:22;;;;;;;35.80;16.92;;;;;;;3.04;76.89;98935.06;4469686;32;34000;-76
2021/12/11 02:12:00;;;;;;;36.42;19.27;;;;;;;3.06;76.54;98941.84;4469368;32;34704;-72
2021/12/11 02:14:34;;;;;;;1.33;1.23;;;;;;;2.92;76.79;98928.81;4469972;32;34379;-82
2021/12/11 02:17:02;;;;;;;39.15;18.95;;;;;;;2.24;80.29;98936.47;4468277;32;33788;-74
2021/12/11 02:19:33;;;;;;;1.48;1.20;;;;;;;2.19;80.39;98927.44;4469307;32;34271;-84
2021/12/11 02:22:00;;;;;;;5.05;3.08;;;;;;;2.27;79.53;98924.53;4469565;32;34860;-72
2021/12/11 02:24:35;;;;;;;35.50;18.17;;;;;;;2.66;78.31;98922.62;4469550;32;33674;-72
2021/12/11 02:27:12;;;;;;;41.78;19.35;;;;;;;2.62;78.98;98929.44;4469683;32;33798;-71
2021/12/11 02:30:01;;;;;;;38.78;18.77;;;;;;;1.81;82.20;98929.09;4468117;32;34155;-74
2021/12/11 02:32:39;;;;;;;37.80;18.17;;;;;;;1.85;82.62;98930.28;4469612;32;34751;-72
2021/12/11 02:35:17;;;;;;;38.67;18.58;;;;;;;2.23;81.44;98934.03;4469424;32;34656;-72
2021/12/11 02:37:57;;;;;;;40.30;18.30;;;;;;;2.02;81.96;98929.81;4469494;32;34773;-72
2021/12/11 02:40:30;;;;;;;38.90;18.40;;;;;;;1.93;82.98;98928.41;4469287;32;34205;-74
2021/12/11 02:43:09;;;;;;;39.13;18.83;;;;;;;2.02;81.44;98917.25;4468703;32;34066;-75
2021/12/11 02:45:47;;;;;;;42.13;19.60;;;;;;;1.81;83.73;98921.06;4468061;32;34641;-72
2021/12/11 02:48:15;;;;;;;1.08;1.08;;;;;;;1.74;83.64;98917.56;4468148;32;32601;-72
2021/12/11 02:50:51;;;;;;;40.25;20.20;;;;;;;2.00;82.50;98934.53;4469085;32;34067;-88
2021/12/11 02:53:29;;;;;;;4.25;1.55;;;;;;;1.69;84.62;98924.59;4469277;32;34819;-75
2021/12/11 02:56:06;;;;;;;2.45;2.28;;;;;;;1.91;83.67;98920.59;4469105;32;34298;-77
2021/12/11 02:58:37;;;;;;;42.05;18.77;;;;;;;2.17;82.58;98927.66;4467887;32;33894;-72
2021/12/11 03:01:22;;;;;;;36.90;18.33;;;;;;;2.09;82.58;98922.56;4468026;32;33978;-72
2021/12/11 03:03:57;;;;;;;41.73;19.63;;;;;;;2.01;82.86;98912.13;4471123;32;34806;-72
2021/12/11 03:06:27;;;;;;;39.75;18.70;;;;;;;1.56;85.08;98901.41;4470942;32;34368;-73
2021/12/11 03:08:57;;;;;;;39.03;17.83;;;;;;;2.16;82.28;98912.66;4471020;32;34596;-72
2021/12/11 03:11:28;;;;;;;41.30;18.25;;;;;;;2.02;83.03;98905.72;4469777;32;34213;-73
2021/12/11 03:13:56;;;;;;;40.55;18.33;;;;;;;2.26;82.32;98912.97;4470857;32;34213;-74
2021/12/11 03:16:27;;;;;;;36.05;18.12;;;;;;;2.10;82.68;98915.38;4471110;32;33836;-76
2021/12/11 03:18:57;;;;;;;38.28;16.40;;;;;;;2.50;80.88;98928.50;4469668;32;34000;-91
2021/12/11 03:21:25;;;;;;;42.30;18.25;;;;;;;2.83;79.55;98933.59;4470739;32;34105;-80
2021/12/11 03:23:55;;;;;;;35.40;17.65;;;;;;;2.84;79.40;98948.63;4470876;32;33959;-72
2021/12/11 03:26:23;;;;;;;34.85;16.87;;;;;;;3.00;78.40;98948.09;4470762;32;34307;-72
2021/12/11 03:28:51;;;;;;;33.95;16.20;;;;;;;3.17;77.66;98952.88;4470936;32;34928;-76
2021/12/11 03:31:18;;;;;;;40.00;17.67;;;;;;;3.22;77.71;98961.94;4470765;32;34221;-76
2021/12/11 03:33:51;;;;;;;30.62;15.52;;;;;;;3.40;76.63;98968.34;4470678;32;34785;-87
2021/12/11 03:36:21;;;;;;;34.13;16.70;;;;;;;3.32;77.23;98969.44;4470880;32;33774;-88
2021/12/11 03:38:56;;;;;;;29.95;15.13;;;;;;;3.55;76.23;98986.78;4469445;32;33754;-73
2021/12/11 03:41:25;;;;;;;37.67;16.90;;;;;;;3.60;75.19;98982.38;4470943;32;33929;-72
2021/12/11 03:43:53;;;;;;;26.90;13.18;;;;;;;3.56;75.40;98991.09;4469617;32;34113;-71
2021/12/11 03:46:20;;;;;;;27.02;12.57;;;;;;;3.14;75.30;98989.00;4470657;32;34247;-76
2021/12/11 03:49:00;;;;;;;26.62;12.43;;;;;;;2.35;77.88;98993.03;4470751;32;33416;-72
2021/12/11 03:51:31;;;;;;;27.23;12.48;;;;;;;3.17;74.21;98993.09;4470567;32;34989;-84
2021/12/11 03:54:01;;;;;;;1.27;0.93;;;;;;;2.60;75.57;98987.75;4469356;32;33877;-77
2021/12/11 03:56:29;;;;;;;1.83;1.50;;;;;;;3.09;74.54;98988.84;4470720;32;33493;-83
2021/12/11 03:58:57;;;;;;;0.75;0.75;;;;;;;3.45;73.00;98988.09;4456495;32;32303;-73
2021/12/11 04:01:28;;;;;;;23.02;12.10;;;;;;;2.93;75.21;98984.03;4470499;32;33858;-82
2021/12/11 04:04:03;;;;;;;28.10;13.90;;;;;;;2.58;76.72;98974.56;4469346;32;35166;-86
2021/12/11 04:06:31;;;;;;;27.87;13.43;;;;;;;2.74;76.37;98967.03;4470512;32;33890;-76
2021/12/11 04:09:00;;;;;;;1.65;1.05;;;;;;;2.55;77.30;98979.53;4470731;32;35493;-82
2021/12/11 04:11:31;;;;;;;0.70;0.70;;;;;;;2.58;76.84;98973.75;4470611;32;35123;-72
2021/12/11 04:14:04;;;;;;;24.80;13.45;;;;;;;2.14;78.93;98975.41;4469166;32;33879;-72
2021/12/11 04:16:32;;;;;;;26.12;13.10;;;;;;;2.11;79.65;98979.34;4470363;32;34514;-77
2021/12/11 04:19:01;;;;;;;27.23;13.32;;;;;;;2.08;80.20;98982.47;4464011;32;169865;-72
2021/12/11 04:21:28;;;;;;;26.20;13.65;;;;;;;2.03;80.43;98984.94;4470503;32;34380;-71
2021/12/11 04:23:56;;;;;;;21.27;11.68;;;;;;;2.21;79.20;98977.03;4470549;32;34522;-71
2021/12/11 04:26:24;;;;;;;26.05;12.45;;;;;;;2.21;79.55;98990.44;4470327;32;34439;-71
2021/12/11 04:28:51;;;;;;;26.05;11.68;;;;;;;2.33;79.06;98992.44;4470023;32;33858;-73
2021/12/11 04:31:22;;;;;;;23.98;12.52;;;;;;;2.24;78.70;98994.53;4470336;32;34278;-72
2021/12/11 04:33:52;;;;;;;23.83;12.55;;;;;;;2.54;78.14;98999.31;4470346;32;33722;-72
2021/12/11 04:36:24;;;;;;;24.55;12.35;;;;;;;2.40;77.68;98999.41;4470509;32;34412;-72
2021/12/11 04:38:52;;;;;;;25.73;12.20;;;;;;;2.25;77.76;99004.22;4469316;32;34812;-72
2021/12/11 04:41:34;;;;;;;23.15;10.80;;;;;;;2.15;78.88;99004.66;4468916;32;34335;-70
2021/12/11 04:44:07;;;;;;;25.35;12.85;;;;;;;2.50;76.98;99012.31;4469424;32;33953;-73
2021/12/11 04:46:35;;;;;;;26.02;13.18;;;;;;;2.59;76.16;98999.47;4470086;32;34139;-73
2021/12/11 04:52:03;;;;;;;20.80;11.50;;;;;;;1.73;79.90;99004.19;4468938;32;34247;-72
2021/12/11 04:57:46;;;;;;;24.02;12.80;;;;;;;1.64;80.87;99000.06;4470143;32;34491;-77
2021/12/11 05:11:09;;;;;;;21.37;12.10;;;;;;;2.12;78.51;99029.16;4470161;32;33510;-72
2021/12/11 05:13:37;;;;;;;24.45;11.25;;;;;;;2.09;78.27;99039.47;4470191;32;34201;-73
2021/12/11 05:16:08;;;;;;;20.65;10.65;;;;;;;2.03;79.21;99043.78;4469942;32;34737;-72
2021/12/11 05:18:38;;;;;;;25.02;12.20;;;;;;;1.95;79.07;99044.06;4470151;32;33204;-73
2021/12/11 05:21:12;;;;;;;24.12;12.77;;;;;;;1.61;80.92;99040.63;4468665;32;33255;-72
2021/12/11 05:23:40;;;;;;;26.17;12.57;;;;;;;1.58;80.05;99035.69;4470170;32;34147;-71
2021/12/11 05:26:08;;;;;;;25.70;12.80;;;;;;;1.06;82.95;99038.19;4469531;32;34729;-72
2021/12/11 05:28:35;;;;;;;21.80;11.30;;;;;;;1.48;80.59;99037.97;4470022;32;33531;-72
2021/12/11 05:31:05;;;;;;;26.42;11.90;;;;;;;1.54;80.53;99039.81;4469739;32;34746;-72
2021/12/11 05:33:32;;;;;;;16.73;9.82;;;;;;;1.53;80.18;99038.16;4469823;32;35005;-73
2021/12/11 05:36:00;;;;;;;18.20;10.23;;;;;;;1.67;79.89;99031.75;4474377;32;34004;-73
2021/12/11 05:38:28;;;;;;;16.25;8.82;;;;;;;1.55;80.16;99044.94;4484421;32;33740;-74
2021/12/11 05:40:58;;;;;;;19.45;10.80;;;;;;;1.47;80.23;99050.50;4484228;32;33963;-73
2021/12/11 05:43:27;;;;;;;2.30;2.15;;;;;;;1.34;81.34;99059.34;4484335;32;35153;-73
2021/12/11 05:45:54;;;;;;;21.35;12.07;;;;;;;1.26;81.72;99051.53;4483935;32;33736;-75
2021/12/11 05:48:22;;;;;;;22.20;11.32;;;;;;;1.81;79.46;99045.91;4484224;32;33749;-73
2021/12/11 05:50:55;;;;;;;20.73;11.12;;;;;;;1.48;80.79;99049.47;4480229;32;34873;-71
2021/12/11 05:53:24;;;;;;;24.90;11.88;;;;;;;1.38;81.02;99057.91;4480569;32;33986;-71
2021/12/11 05:55:53;;;;;;;19.08;10.38;;;;;;;1.57;79.66;99066.94;4484060;32;33801;-71
2021/12/11 05:58:47;;;;;;;17.50;9.40;;;;;;;1.53;79.70;99070.22;4484113;32;33406;-70
2021/12/11 06:01:20;;;;;;;22.40;11.80;;;;;;;1.98;77.99;99071.19;4484817;32;33514;-69
2021/12/11 06:03:48;;;;;;;1.83;1.73;;;;;;;2.08;77.63;99081.47;4485267;32;34044;-70
2021/12/11 06:06:16;;;;;;;17.87;10.00;;;;;;;2.06;77.13;99091.56;4485142;32;33943;-70
2021/12/11 06:08:43;;;;;;;18.65;10.00;;;;;;;1.82;77.79;99099.22;4483948;32;32980;-71
2021/12/11 06:11:15;;;;;;;3.65;1.65;;;;;;;1.67;78.44;99103.16;4485331;32;34736;-72
2021/12/11 06:13:43;;;;;;;0.93;0.85;;;;;;;1.73;78.53;99115.66;4483866;32;33876;-71
2021/12/11 06:16:12;;;;;;;20.67;10.02;;;;;;;1.39;80.04;99131.72;4483923;32;33914;-71
2021/12/11 06:18:40;;;;;;;20.75;11.68;;;;;;;1.31;80.88;99144.47;4485354;32;33910;-71
2021/12/11 06:21:26;;;;;;;19.62;10.95;;;;;;;1.37;80.12;99152.47;4484681;32;33776;-71
2021/12/11 06:23:54;;;;;;;20.90;11.35;;;;;;;1.68;78.72;99151.06;4485097;32;34259;-72
2021/12/11 06:26:21;;;;;;;23.05;12.65;;;;;;;1.92;77.57;99154.94;4479341;32;34546;-75
2021/12/11 06:28:49;;;;;;;20.88;11.45;;;;;;;2.07;77.13;99152.06;4476444;32;33398;-73
2021/12/11 06:31:20;;;;;;;23.33;11.90;;;;;;;1.74;78.79;99162.78;4480819;32;33958;-73
2021/12/11 06:33:51;;;;;;;23.08;11.68;;;;;;;1.70;79.49;99165.03;4483559;32;33900;-73
2021/12/11 06:36:21;;;;;;;23.83;12.10;;;;;;;2.19;77.18;99177.16;4482396;32;34443;-74
2021/12/11 06:38:51;;;;;;;20.80;11.30;;;;;;;1.78;79.17;99180.88;4483951;32;33221;-72
2021/12/11 06:41:22;;;;;;;21.80;10.35;;;;;;;2.10;77.72;99183.75;4470574;32;33739;-69
2021/12/11 06:43:50;;;;;;;21.52;10.75;;;;;;;1.83;77.69;99188.28;4468032;32;35127;-70
2021/12/11 06:46:17;;;;;;;21.37;10.70;;;;;;;1.54;79.45;99195.69;4467070;32;34417;-72
2021/12/11 06:48:46;;;;;;;19.75;9.85;;;;;;;1.99;77.19;99195.09;4466610;32;33264;-70
2021/12/11 06:51:13;;;;;;;0.77;0.77;;;;;;;1.39;79.59;99195.06;4475018;32;33924;-70
2021/12/11 06:53:44;;;;;;;21.35;10.60;;;;;;;1.41;80.17;99199.16;4483259;32;34284;-70
2021/12/11 06:56:14;;;;;;;18.62;10.25;;;;;;;1.62;79.34;99210.69;4483321;32;33929;-69
2021/12/11 06:58:42;;;;;;;19.23;10.52;;;;;;;1.63;79.44;99218.53;4483455;32;33642;-70
2021/12/11 07:01:10;;;;;;;22.65;11.25;;;;;;;1.79;78.79;99221.81;4482417;32;33573;-70
2021/12/11 07:03:39;;;;;;;21.50;11.63;;;;;;;2.21;77.47;99225.94;4483430;32;35132;-71
2021/12/11 07:06:08;;;;;;;20.00;11.50;;;;;;;2.42;76.10;99238.28;4483138;32;33631;-72
2021/12/11 07:08:38;;;;;;;18.12;10.30;;;;;;;1.77;78.51;99239.94;4483187;32;33499;-70
2021/12/11 07:11:07;;;;;;;19.58;10.55;;;;;;;1.95;78.42;99250.88;4495008;31;34736;-70
2021/12/11 07:13:35;;;;;;;18.37;10.27;;;;;;;1.87;78.42;99258.25;4483065;32;33885;-70
2021/12/11 07:16:03;;;;;;;19.65;10.63;;;;;;;1.84;77.92;99264.84;4482627;32;34056;-69
2021/12/11 07:18:32;;;;;;;18.75;9.95;;;;;;;1.48;78.60;99274.03;4482952;32;33560;-71
2021/12/11 07:21:00;;;;;;;18.50;9.30;;;;;;;1.89;77.24;99274.94;4482870;32;34586;-68
2021/12/11 07:23:28;;;;;;;20.85;10.18;;;;;;;1.74;77.56;99278.59;4483384;32;34060;-68
2021/12/11 07:26:01;;;;;;;19.48;10.85;;;;;;;2.41;75.03;99297.38;4482834;32;34634;-70
2021/12/11 07:28:29;;;;;;;18.98;10.50;;;;;;;2.23;75.68;99298.84;4483125;32;33694;-71
2021/12/11 07:30:59;;;;;;;18.58;9.90;;;;;;;2.53;74.20;99306.44;4482608;32;33588;-72
2021/12/11 07:33:26;;;;;;;20.33;12.10;;;;;;;2.24;75.37;99308.50;4482085;32;33912;-69
2021/12/11 07:35:55;;;;;;;21.83;12.40;;;;;;;2.81;72.89;99306.19;4482602;32;34147;-69
2021/12/11 07:38:23;;;;;;;33.45;17.20;;;;;;;2.62;73.68;99323.13;4483219;32;34448;-69
2021/12/11 07:40:54;;;;;;;49.35;23.52;;;;;;;2.53;74.67;99325.19;4483155;32;33860;-71
2021/12/11 07:43:23;;;;;;;34.45;18.45;;;;;;;2.02;77.12;99315.91;4494626;31;33823;-69
2021/12/11 07:45:52;;;;;;;28.00;15.00;;;;;;;2.37;75.90;99317.56;4482555;32;33905;-72
2021/12/11 07:48:25;;;;;;;23.23;12.07;;;;;;;2.65;73.79;99318.16;4482615;32;33924;-70
2021/12/11 07:50:55;;;;;;;24.67;14.38;;;;;;;2.29;75.91;99318.62;4484715;32;34612;-69
2021/12/11 07:53:23;;;;;;;28.20;14.82;;;;;;;2.07;76.83;99311.78;4483824;32;34033;-69
2021/12/11 07:55:52;;;;;;;22.33;13.45;;;;;;;1.70;78.43;99306.78;4484807;32;34566;-68
2021/12/11 07:58:20;;;;;;;24.20;12.55;;;;;;;1.52;78.79;99309.22;4493838;31;33249;-67
2021/12/11 08:00:48;;;;;;;25.00;13.05;;;;;;;1.56;78.88;99302.44;4484637;32;34431;-68
2021/12/11 08:03:18;;;;;;;24.73;13.07;;;;;;;1.69;78.56;99307.81;4484333;32;34868;-67
2021/12/11 08:05:50;;;;;;;2.87;2.37;;;;;;;1.78;77.42;99317.28;4483889;32;34533;-67
2021/12/11 08:08:19;;;;;;;16.48;9.40;;;;;;;2.02;77.00;99320.44;4484841;32;33538;-67
2021/12/11 08:10:51;;;;;;;28.67;14.38;;;;;;;1.64;78.07;99320.94;4484733;32;33951;-68
2021/12/11 08:13:18;;;;;;;27.75;13.85;;;;;;;1.34;78.27;99320.44;4484789;32;33982;-68
2021/12/11 08:15:46;;;;;;;21.37;11.43;;;;;;;1.64;77.13;99323.63;4483006;32;33960;-66
2021/12/11 08:18:14;;;;;;;15.40;8.43;;;;;;;1.63;77.25;99322.81;4484761;32;33373;-67
2021/12/11 08:20:43;;;;;;;22.55;12.63;;;;;;;1.79;76.10;99328.81;4484466;32;34361;-67
2021/12/11 08:23:12;;;;;;;29.02;15.18;;;;;;;1.89;75.88;99325.75;4484713;32;35309;-66
2021/12/11 08:25:42;;;;;;;16.70;10.20;;;;;;;1.96;76.48;99332.75;4484755;32;34664;-67
2021/12/11 08:28:12;;;;;;;11.80;6.78;;;;;;;1.98;76.47;99338.72;4483364;32;33286;-67
2021/12/11 08:30:43;;;;;;;15.07;8.40;;;;;;;1.29;77.53;99336.25;4484077;32;33983;-68
2021/12/11 08:33:11;;;;;;;19.83;10.00;;;;;;;1.73;77.57;99337.63;4475168;32;34667;-67
2021/12/11 08:35:39;;;;;;;17.40;9.32;;;;;;;1.78;76.04;99344.03;4480504;32;34600;-66
2021/12/11 08:38:07;;;;;;;21.85;10.25;;;;;;;1.66;76.42;99342.16;4468671;32;33464;-67
2021/12/11 08:40:39;;;;;;;18.80;9.82;;;;;;;1.89;75.12;99339.97;4468850;32;34685;-67
2021/12/11 08:43:11;;;;;;;13.00;7.78;;;;;;;1.51;77.52;99342.31;4469009;32;34158;-68
2021/12/11 08:45:48;;;;;;;14.68;8.57;;;;;;;1.47;77.22;99343.72;4468616;32;34604;-67
2021/12/11 08:48:22;;;;;;;14.10;8.30;;;;;;;1.42;78.05;99347.00;4468932;32;33787;-67
2021/12/11 08:50:54;;;;;;;13.50;7.57;;;;;;;1.79;76.31;99340.34;4467396;32;33523;-67
2021/12/11 08:53:22;;;;;;;16.60;9.32;;;;;;;1.70;76.49;99340.72;4468992;32;33016;-67
2021/12/11 08:55:54;;;;;;;23.50;12.48;;;;;;;1.40;77.80;99344.53;4468626;32;34539;-67
2021/12/11 08:58:23;;;;;;;17.00;10.10;;;;;;;1.41;77.79;99345.37;4468360;32;33737;-67
2021/12/11 09:01:02;;;;;;;20.37;10.90;;;;;;;1.77;77.58;99360.28;4468085;32;34518;-68
2021/12/11 09:03:40;;;;;;;17.80;8.45;;;;;;;1.64;77.50;99363.72;4469974;32;35085;-68
2021/12/11 09:06:13;;;;;;;13.77;7.22;;;;;;;1.51;77.50;99353.00;4469447;32;34273;-69
2021/12/11 09:08:51;;;;;;;10.52;6.80;;;;;;;1.92;76.04;99368.16;4481457;32;33662;-71
2021/12/11 09:11:33;;;;;;;12.82;7.95;;;;;;;2.16;75.00;99372.09;4468990;32;33864;-69
2021/12/11 09:14:06;;;;;;;14.32;8.25;;;;;;;1.86;76.47;99364.44;4468625;32;35100;-69
2021/12/11 09:16:52;;;;;;;12.52;7.50;;;;;;;1.57;75.89;99362.91;4469981;32;34550;-68
2021/12/11 09:19:24;;;;;;;;;;;;;;;1.25;77.30;99372.41;4469947;32;33334;-70
2021/12/11 09:22:02;;;;;;;12.65;7.70;;;;;;;1.52;76.13;99384.88;4468770;32;34351;-69
2021/12/11 09:24:34;;;;;;;14.45;8.10;;;;;;;1.91;75.75;99380.72;4468792;32;33631;-69
2021/12/11 09:27:16;;;;;;;12.63;8.45;;;;;;;2.06;74.89;99388.56;4469867;32;34758;-77
2021/12/11 09:30:03;;;;;;;1.10;1.00;;;;;;;1.73;77.11;99388.44;4474986;32;33596;-70
2021/12/11 09:32:35;;;;;;;13.88;7.87;;;;;;;1.90;75.84;99389.78;4485615;32;33728;-73
2021/12/11 09:35:09;;;;;;;13.02;7.60;;;;;;;1.69;76.35;99403.28;4483930;32;33825;-70
2021/12/11 09:37:37;;;;;;;10.32;6.50;;;;;;;2.16;75.77;99405.06;4485668;32;33703;-69
2021/12/11 09:40:15;;;;;;;9.35;6.07;;;;;;;2.15;75.36;99411.44;4482334;32;34306;-68
2021/12/11 09:42:42;;;;;;;10.05;5.78;;;;;;;1.84;75.24;99407.44;4484144;32;34495;-72
2021/12/11 09:45:14;;;;;;;11.32;6.78;;;;;;;1.95;75.65;99413.25;4485592;32;34125;-78
2021/12/11 09:47:50;;;;;;;10.18;6.60;;;;;;;2.33;73.97;99416.19;4485328;32;34425;-68
2021/12/11 09:50:29;;;;;;;8.25;4.87;;;;;;;2.15;74.88;99418.66;4485183;32;33383;-67
2021/12/11 09:52:56;;;;;;;10.55;6.00;;;;;;;2.11;75.13;99404.84;4485471;32;34325;-71
2021/12/11 09:55:32;;;;;;;12.45;6.93;;;;;;;2.16;74.57;99402.41;4485004;32;35007;-69
2021/12/11 09:58:04;;;;;;;10.90;5.97;;;;;;;2.26;75.31;99413.50;4484010;32;33779;-70
2021/12/11 10:00:40;;;;;;;8.93;5.30;;;;;;;2.30;74.65;99405.09;4485287;32;34447;-67
2021/12/11 10:03:09;;;;;;;11.38;6.22;;;;;;;1.78;76.04;99394.88;4485487;32;34748;-67
2021/12/11 10:05:55;;;;;;;10.32;6.28;;;;;;;2.11;75.69;99391.44;4479367;32;34083;-68
2021/12/11 10:08:37;;;;;;;12.95;7.15;;;;;;;1.47;77.33;99384.66;4471719;32;33425;-74
2021/12/11 10:11:11;;;;;;;10.40;6.07;;;;;;;1.68;77.17;99386.38;4485211;32;33514;-72
2021/12/11 10:13:54;;;;;;;0.50;0.50;;;;;;;1.62;77.45;99385.34;4485582;32;34605;-70
2021/12/11 10:16:25;;;;;;;10.95;6.10;;;;;;;1.93;76.11;99383.19;4485193;32;34849;-73
2021/12/11 10:18:54;;;;;;;16.25;8.30;;;;;;;2.09;75.82;99381.97;4483671;32;33972;-73
2021/12/11 10:21:32;;;;;;;9.32;6.07;;;;;;;2.04;75.80;99387.94;4485063;32;34220;-70
2021/12/11 10:24:04;;;;;;;9.80;6.20;;;;;;;1.93;75.84;99386.69;4485048;32;34750;-69
2021/12/11 10:26:32;;;;;;;10.88;6.82;;;;;;;2.27;76.23;99374.19;4484970;32;35160;-69
2021/12/11 10:29:03;;;;;;;10.23;6.30;;;;;;;2.30;75.22;99383.69;4485319;32;34064;-70
2021/12/11 10:31:35;;;;;;;9.38;6.30;;;;;;;2.49;74.25;99382.88;4484525;32;33650;-74
2021/12/11 10:34:06;;;;;;;9.95;6.18;;;;;;;2.44;74.95;99393.34;4485171;32;33956;-70
2021/12/11 10:36:38;;;;;;;10.77;6.68;;;;;;;2.87;72.60;99390.25;4485210;32;34017;-70
2021/12/11 10:39:08;;;;;;;10.52;7.57;;;;;;;2.59;73.87;99403.88;4484831;32;34157;-71
2021/12/11 10:41:37;;;;;;;12.15;7.45;;;;;;;2.22;74.53;99404.22;4485182;32;34089;-70
2021/12/11 10:44:09;;;;;;;13.68;6.93;;;;;;;2.72;73.58;99398.53;4485158;32;33771;-72
2021/12/11 10:46:47;;;;;;;9.40;5.62;;;;;;;1.98;75.16;99405.63;4483871;32;33925;-70
2021/12/11 10:49:16;;;;;;;14.52;8.48;;;;;;;2.15;75.16;99410.62;4484042;32;34181;-73
2021/12/11 10:51:51;;;;;;;15.32;8.88;;;;;;;2.30;75.31;99403.22;4484822;32;33667;-72
2021/12/11 10:54:19;;;;;;;14.20;7.60;;;;;;;1.94;76.92;99407.03;4496710;31;34532;-75
2021/12/11 10:56:48;;;;;;;11.15;6.80;;;;;;;2.09;76.30;99404.22;4484970;32;33920;-74
2021/12/11 10:59:22;;;;;;;11.60;6.37;;;;;;;1.62;77.03;99401.41;4484902;32;33671;-72
2021/12/11 11:01:57;;;;;;;11.50;7.10;;;;;;;1.46;78.48;99395.56;4484974;32;34352;-71
2021/12/11 11:04:28;;;;;;;14.30;7.32;;;;;;;1.87;76.83;99395.50;4483750;32;33406;-70
2021/12/11 11:06:56;;;;;;;12.18;7.62;;;;;;;1.81;77.24;99393.63;4484739;32;33339;-70
2021/12/11 11:09:24;;;;;;;11.98;7.28;;;;;;;1.75;78.10;99391.75;4483734;32;34749;-69
2021/12/11 11:11:55;;;;;;;3.33;1.67;;;;;;;1.78;77.35;99386.03;4484861;32;33347;-70
2021/12/11 11:14:24;;;;;;;9.77;6.12;;;;;;;1.58;76.99;99378.75;4483668;32;33655;-70
2021/12/11 11:16:58;;;;;;;0.50;0.50;;;;;;;1.82;77.34;99388.09;4484536;32;35205;-70
2021/12/11 11:19:28;;;;;;;8.68;5.87;;;;;;;1.83;76.87;99384.37;4484520;32;33958;-69
2021/12/11 11:22:00;;;;;;;8.73;5.30;;;;;;;1.96;76.80;99386.25;4484683;32;33455;-74
2021/12/11 11:24:32;;;;;;;12.18;6.05;;;;;;;1.84;77.32;99383.37;4486096;32;33836;-72
2021/12/11 11:27:03;;;;;;;10.98;6.62;;;;;;;2.21;76.51;99383.87;4486682;32;34099;-70
2021/12/11 11:29:31;;;;;;;9.75;6.25;;;;;;;2.15;76.40;99387.34;4498287;31;34829;-70
2021/12/11 11:32:04;;;;;;;11.73;6.95;;;;;;;2.14;76.14;99385.72;4483283;32;33254;-69
2021/12/11 11:34:39;;;;;;;15.90;8.40;;;;;;;2.10;76.03;99384.47;4484802;32;33907;-75
2021/12/11 11:37:08;;;;;;;;;;;;;;;2.40;75.29;99389.47;4497776;31;34722;-70
2021/12/11 11:39:38;;;;;;;11.07;6.40;;;;;;;2.18;75.89;99384.28;4485244;32;35128;-67
2021/12/11 11:42:16;;;;;;;10.93;6.43;;;;;;;2.20;76.29;99381.38;4497924;31;33459;-69
2021/12/11 11:44:45;;;;;;;12.32;6.72;;;;;;;2.09;76.52;99376.63;4486326;32;34688;-72
2021/12/11 11:47:14;;;;;;;11.32;6.82;;;;;;;1.71;77.31;99379.84;4486359;32;34097;-67
2021/12/11 11:49:42;;;;;;;10.65;6.43;;;;;;;2.00;77.11;99392.88;4486447;32;34078;-68
2021/12/11 11:52:12;;;;;;;9.60;6.10;;;;;;;1.89;77.44;99398.00;4486232;32;34404;-70
2021/12/11 11:54:43;;;;;;;12.10;6.68;;;;;;;1.99;76.48;99403.78;4486042;32;34735;-69
2021/12/11 11:57:18;;;;;;;12.82;7.03;;;;;;;1.88;76.51;99407.03;4486352;32;34390;-67
2021/12/11 11:59:49;;;;;;;0.50;0.50;;;;;;;2.14;75.41;99417.81;4485998;32;33904;-67
2021/12/11 12:02:19;;;;;;;0.70;0.70;;;;;;;2.32;75.06;99419.91;4485602;32;33539;-69
2021/12/11 12:04:53;;;;;;;12.45;7.57;;;;;;;2.49;74.92;99419.53;4486308;32;34200;-69
2021/12/11 12:07:26;;;;;;;11.10;6.57;;;;;;;2.44;75.33;99417.44;4486259;32;33718;-70
2021/12/11 12:09:57;;;;;;;12.65;6.82;;;;;;;2.38;75.70;99421.78;4486372;32;33959;-68
2021/12/11 12:12:25;;;;;;;12.35;7.28;;;;;;;2.79;73.92;99426.16;4486358;32;33585;-67